Terminal Aerodrome Forecast
Issued by NWS

Home | Current Version | Previous Version | Text Only | Print | Product List | Glossary On
Versions: 1 2 3 4 5 6 7 8 9 10 11 12 13 14 15 16
000
FTUS46 KSTO 102300 RRA
TAFRDD
TAF
KRDD 102344Z 1100/1124 16009KT P6SM FEW150
     FM110100 18010KT P6SM SCT150
     FM110500 VRB04KT P6SM VCSH SCT080 SCT150
     FM112100 20006KT P6SM SCT250=

USA.gov is the U.S. government's official web portal to all federal, state and local government web resources and services.